Terminal Aerodrome Forecast
Issued by NWS Cleveland, OH

Home | Current Version | Previous Version | Graphics & Text | Print | Product List | Glossary On
Versions: 1 2 3 4 5 6 7 8 9 10 11 12 13 14 15 16 17 18
000
FTUS41 KCLE 260530
TAFTOL
TAF
KTOL 260530Z 2606/2706 22012KT P6SM -SHRA BKN050
      TEMPO 2606/2608 2SM -TSRA BR BKN030CB
     FM260900 25010KT P6SM OVC035
     FM261400 31011KT P6SM OVC015
     FM261900 02012KT P6SM OVC020=

USA.gov is the U.S. government's official web portal to all federal, state and local government web resources and services.